Time;durP1;ratioP1;P1;durP2;ratioP2;P2;SDS_P1;SDS_P2;PMS_P1;PMS_P2;Temp;Humidity;BMP_temperature;BMP_pressure;BME280_temperature;BME280_humidity;BME280_pressure;Samples;Min_cycle;Max_cycle;Signal;HPM_P1;HPM_P2
2021/03/22 00:01:18;;;;;;;23.50;6.20;;;;;;;2.80;78.03;102464.09;5261048;28;20040;-69
2021/03/22 00:03:49;;;;;;;23.15;4.45;;;;;;;2.75;78.45;102458.22;5240436;28;20036;-69
2021/03/22 00:06:21;;;;;;;23.58;5.40;;;;;;;2.65;78.05;102451.56;5247939;28;20066;-69
2021/03/22 00:08:56;;;;;;;31.08;5.78;;;;;;;2.65;78.76;102448.97;5260282;28;20098;-69
2021/03/22 00:11:28;;;;;;;23.23;5.03;;;;;;;2.56;79.05;102455.25;5261399;28;20028;-69
2021/03/22 00:13:59;;;;;;;24.02;5.38;;;;;;;2.65;80.39;102449.84;5246111;28;20033;-68
2021/03/22 00:16:30;;;;;;;24.00;4.80;;;;;;;2.54;79.79;102451.00;5256755;28;20029;-69
2021/03/22 00:19:02;;;;;;;22.13;5.65;;;;;;;2.55;79.79;102452.72;5261169;28;20032;-68
2021/03/22 00:21:33;;;;;;;24.40;4.70;;;;;;;2.48;79.56;102457.19;5259665;28;20574;-69
2021/03/22 00:24:04;;;;;;;21.55;4.78;;;;;;;2.40;79.47;102459.13;5244902;28;20101;-69
2021/03/22 00:26:36;;;;;;;30.05;6.57;;;;;;;2.38;79.87;102455.69;5260496;28;20028;-69
2021/03/22 00:29:07;;;;;;;22.10;5.30;;;;;;;2.34;79.90;102459.25;5260468;28;20024;-69
2021/03/22 00:31:38;;;;;;;22.00;4.72;;;;;;;2.31;80.21;102456.72;5257828;28;20025;-69
2021/03/22 00:34:10;;;;;;;24.85;5.97;;;;;;;2.28;80.29;102447.34;5241105;28;20048;-69
2021/03/22 00:36:41;;;;;;;24.08;5.32;;;;;;;2.24;79.88;102456.06;5236547;28;20021;-69
2021/03/22 00:39:13;;;;;;;21.08;5.13;;;;;;;2.22;80.56;102454.38;5259741;28;20032;-69
2021/03/22 00:41:44;;;;;;;26.50;5.50;;;;;;;2.33;80.44;102449.81;5240303;28;20029;-69
2021/03/22 00:44:16;;;;;;;22.25;5.03;;;;;;;2.23;80.92;102446.56;5239298;28;20025;-69
2021/03/22 00:46:47;;;;;;;21.90;5.32;;;;;;;2.35;80.04;102450.59;5239669;28;20030;-69
2021/03/22 00:49:18;;;;;;;22.38;5.95;;;;;;;2.21;80.68;102450.94;5247367;28;20051;-69
2021/03/22 00:51:50;;;;;;;23.45;5.68;;;;;;;2.17;80.99;102447.59;5259950;28;20051;-69
2021/03/22 00:54:21;;;;;;;21.85;5.15;;;;;;;2.18;81.32;102445.84;5260218;28;20028;-69
2021/03/22 00:56:52;;;;;;;23.17;5.68;;;;;;;2.16;81.78;102445.91;5257890;28;20494;-69
2021/03/22 00:59:23;;;;;;;23.92;5.22;;;;;;;2.13;81.66;102439.94;5239173;28;20028;-69
2021/03/22 01:01:55;;;;;;;24.52;5.28;;;;;;;2.11;81.84;102441.72;5244449;28;20111;-69
2021/03/22 01:04:26;;;;;;;24.70;5.45;;;;;;;2.06;81.69;102440.97;5260036;28;20445;-69
2021/03/22 01:06:57;;;;;;;19.05;6.68;;;;;;;2.02;81.67;102436.78;5249878;28;20531;-69
2021/03/22 01:09:29;;;;;;;24.40;6.38;;;;;;;2.01;81.74;102438.50;5251715;28;20497;-69
2021/03/22 01:12:00;;;;;;;22.10;5.70;;;;;;;1.98;81.84;102437.72;5260400;28;20502;-68
2021/03/22 01:14:31;;;;;;;26.70;5.75;;;;;;;1.99;82.09;102429.06;5241278;28;20056;-68
2021/03/22 01:17:03;;;;;;;20.17;5.43;;;;;;;1.85;81.94;102416.47;5259971;28;20029;-69
2021/03/22 01:19:34;;;;;;;24.83;5.15;;;;;;;1.94;81.17;102409.38;5259851;28;20109;-69
2021/03/22 01:22:06;;;;;;;23.00;5.80;;;;;;;1.95;82.63;102418.81;5255252;28;20401;-68
2021/03/22 01:24:37;;;;;;;31.77;5.88;;;;;;;1.95;82.75;102417.97;5239305;28;20033;-69
2021/03/22 01:27:09;;;;;;;24.23;5.32;;;;;;;1.94;83.05;102424.03;5256560;28;20486;-69
2021/03/22 01:29:42;;;;;;;22.00;5.50;;;;;;;1.92;82.88;102418.88;5259548;28;20025;-68
2021/03/22 01:32:13;;;;;;;22.50;6.78;;;;;;;1.88;82.59;102409.50;5240132;28;20367;-69
2021/03/22 01:34:45;;;;;;;23.33;4.85;;;;;;;1.87;82.90;102401.78;5258981;28;20158;-69
2021/03/22 01:37:16;;;;;;;24.98;5.40;;;;;;;1.85;83.10;102406.97;5259687;28;20021;-69
2021/03/22 01:39:48;;;;;;;24.77;5.78;;;;;;;1.92;82.17;102412.84;5260170;28;20093;-69
2021/03/22 01:42:47;;;;;;;32.40;7.50;;;;;;;1.98;82.97;102410.16;5243211;28;20029;-69
2021/03/22 01:45:19;;;;;;;25.08;5.97;;;;;;;1.92;83.57;102410.28;5249645;28;20051;-68
2021/03/22 01:47:50;;;;;;;25.45;5.80;;;;;;;1.87;83.72;102406.97;5260188;28;20025;-69
2021/03/22 01:50:26;;;;;;;24.20;6.18;;;;;;;1.85;83.53;102395.78;5250469;28;20029;-69
2021/03/22 01:53:00;;;;;;;28.13;6.57;;;;;;;1.79;83.29;102394.22;5260039;28;20040;-69
2021/03/22 01:55:31;;;;;;;30.38;6.40;;;;;;;1.80;83.32;102389.91;5241180;28;20774;-68
2021/03/22 01:58:04;;;;;;;24.15;6.30;;;;;;;1.82;82.90;102389.00;5244606;28;20056;-69
2021/03/22 02:00:37;;;;;;;25.08;6.75;;;;;;;1.76;83.13;102390.84;5239469;28;20548;-68
2021/03/22 02:03:16;;;;;;;23.52;5.82;;;;;;;1.80;83.43;102398.50;5253865;28;20049;-68
2021/03/22 02:05:49;;;;;;;20.65;6.22;;;;;;;1.72;83.05;102376.31;5258781;28;20485;-68
2021/03/22 02:08:31;;;;;;;24.70;6.55;;;;;;;1.76;83.93;102377.94;5245878;28;20048;-68
2021/03/22 02:11:02;;;;;;;22.10;7.22;;;;;;;1.67;84.12;102385.03;5259426;28;20033;-69
2021/03/22 02:13:36;;;;;;;19.60;5.65;;;;;;;1.68;84.35;102386.72;5244188;28;20087;-69
2021/03/22 02:16:22;;;;;;;20.95;5.97;;;;;;;1.68;84.35;102384.13;5242523;28;20479;-68
2021/03/22 02:19:11;;;;;;;20.83;6.00;;;;;;;1.65;83.85;102384.19;5242416;28;20025;-69
2021/03/22 02:22:04;;;;;;;16.50;5.03;;;;;;;1.64;82.98;102377.34;5262012;28;20524;-69
2021/03/22 02:25:03;;;;;;;27.67;6.00;;;;;;;1.64;83.13;102373.91;5262475;28;20413;-68
2021/03/22 02:28:08;;;;;;;18.73;6.30;;;;;;;1.59;82.77;102374.03;5241995;28;20028;-69
2021/03/22 02:31:09;;;;;;;27.20;6.32;;;;;;;1.58;83.10;102372.28;5242549;28;20112;-68
2021/03/22 02:34:08;;;;;;;29.27;6.55;;;;;;;1.52;83.10;102372.44;5258083;28;20029;-69
2021/03/22 02:36:42;;;;;;;21.02;5.82;;;;;;;1.40;83.55;102383.03;5260431;28;20037;-68
2021/03/22 02:39:14;;;;;;;25.30;6.60;;;;;;;1.32;83.79;102382.34;5262802;28;20040;-69
2021/03/22 02:41:52;;;;;;;34.92;6.93;;;;;;;1.41;84.01;102382.16;5249644;28;20029;-68
2021/03/22 02:44:33;;;;;;;20.35;6.60;;;;;;;1.33;83.75;102377.19;5251522;28;20036;-69
2021/03/22 02:47:09;;;;;;;26.20;6.90;;;;;;;1.35;83.84;102375.38;5262159;28;20465;-68
2021/03/22 02:49:40;;;;;;;20.48;6.35;;;;;;;1.34;84.02;102372.84;5262276;28;20033;-69
2021/03/22 02:52:30;;;;;;;28.58;6.30;;;;;;;1.27;83.69;102377.28;5243545;28;20032;-69
2021/03/22 02:55:10;;;;;;;30.25;7.07;;;;;;;1.25;83.85;102373.03;5241505;28;20087;-69
2021/03/22 02:57:54;;;;;;;31.52;7.60;;;;;;;1.23;84.23;102379.97;5255514;28;20057;-70
2021/03/22 03:00:34;;;;;;;22.33;6.25;;;;;;;1.11;83.00;102371.59;5257099;28;20052;-69
2021/03/22 03:03:11;;;;;;;22.05;6.30;;;;;;;1.09;83.14;102372.50;5257255;28;20037;-69
2021/03/22 03:05:50;;;;;;;30.63;7.53;;;;;;;1.08;84.45;102369.09;5246831;28;20502;-69
2021/03/22 03:08:40;;;;;;;30.38;8.10;;;;;;;1.09;83.90;102370.78;5241398;28;20056;-69
2021/03/22 03:11:13;;;;;;;25.52;6.53;;;;;;;1.03;84.04;102388.16;5239980;28;20021;-68
2021/03/22 03:13:44;;;;;;;31.85;6.32;;;;;;;1.00;84.45;102383.88;5235170;28;20017;-69
2021/03/22 03:16:15;;;;;;;27.38;6.20;;;;;;;1.02;84.09;102381.25;5254298;28;20052;-69
2021/03/22 03:18:46;;;;;;;29.10;6.60;;;;;;;0.99;84.41;102373.59;5252924;28;20112;-69
2021/03/22 03:21:18;;;;;;;23.80;6.18;;;;;;;0.96;84.10;102383.09;5240533;28;20025;-69
2021/03/22 03:23:49;;;;;;;28.90;7.20;;;;;;;0.98;85.51;102395.94;5238866;28;20029;-69
2021/03/22 03:26:20;;;;;;;27.73;7.78;;;;;;;1.05;86.90;102400.13;5243664;28;20021;-69
2021/03/22 03:28:51;;;;;;;30.58;8.43;;;;;;;1.05;86.46;102405.28;5261131;28;20036;-69
2021/03/22 03:31:23;;;;;;;33.33;7.60;;;;;;;1.03;85.99;102407.06;5243786;28;20028;-69
2021/03/22 03:33:54;;;;;;;36.83;7.45;;;;;;;0.99;85.44;102405.41;5258466;28;20025;-69
2021/03/22 03:36:26;;;;;;;29.73;7.40;;;;;;;0.96;85.21;102400.31;5261823;28;20041;-69
2021/03/22 03:38:57;;;;;;;28.85;6.63;;;;;;;0.85;85.04;102387.63;5243607;28;20027;-69
2021/03/22 03:41:28;;;;;;;28.88;7.38;;;;;;;0.82;84.69;102379.09;5261318;28;20029;-70
2021/03/22 03:43:59;;;;;;;24.75;7.15;;;;;;;0.85;84.63;102404.81;5256078;28;20171;-69
2021/03/22 03:46:31;;;;;;;28.10;6.85;;;;;;;0.84;85.57;102403.97;5261307;28;20028;-69
2021/03/22 03:49:02;;;;;;;32.78;7.45;;;;;;;0.79;84.83;102407.50;5260610;28;20025;-69
2021/03/22 03:51:35;;;;;;;28.50;7.25;;;;;;;0.77;84.41;102393.81;5251988;28;20025;-69
2021/03/22 03:54:09;;;;;;;29.67;7.20;;;;;;;0.76;84.56;102402.41;5255851;28;20382;-69
2021/03/22 03:56:40;;;;;;;24.67;7.43;;;;;;;0.79;84.99;102404.94;5261318;28;20518;-69
2021/03/22 03:59:11;;;;;;;26.58;7.50;;;;;;;0.71;84.85;102403.34;5260157;28;20033;-69
2021/03/22 04:01:43;;;;;;;26.55;7.82;;;;;;;0.75;84.39;102411.03;5243867;28;20027;-69
2021/03/22 04:04:14;;;;;;;21.42;6.95;;;;;;;0.79;84.63;102413.53;5261237;28;20053;-69
2021/03/22 04:06:45;;;;;;;23.33;6.93;;;;;;;0.79;85.22;102417.84;5260935;28;20033;-69
2021/03/22 04:09:19;;;;;;;25.85;7.22;;;;;;;0.77;85.47;102393.81;5256713;28;20025;-69
2021/03/22 04:11:51;;;;;;;24.50;6.50;;;;;;;0.86;85.72;102409.09;5243460;28;20024;-69
2021/03/22 04:14:28;;;;;;;22.55;7.75;;;;;;;0.86;85.67;102393.63;5260701;28;20120;-69
2021/03/22 04:16:59;;;;;;;24.40;7.22;;;;;;;0.92;85.99;102403.84;5260685;28;20104;-69
2021/03/22 04:19:31;;;;;;;25.00;7.50;;;;;;;0.96;85.56;102408.06;5244463;28;20116;-69
2021/03/22 04:22:02;;;;;;;25.25;7.28;;;;;;;1.04;85.86;102410.47;5260798;28;20363;-69
2021/03/22 04:24:33;;;;;;;26.30;8.25;;;;;;;1.08;86.50;102410.38;5242410;28;20074;-69
2021/03/22 04:27:06;;;;;;;21.70;7.57;;;;;;;1.09;86.71;102401.75;5252465;28;20039;-69
2021/03/22 04:29:37;;;;;;;36.90;9.05;;;;;;;1.15;86.06;102411.13;5257035;28;20110;-69
2021/03/22 04:32:09;;;;;;;28.27;8.40;;;;;;;1.18;85.93;102411.91;5260489;28;20056;-69
2021/03/22 04:34:40;;;;;;;28.92;8.05;;;;;;;1.20;86.02;102409.28;5240871;28;20185;-69
2021/03/22 04:37:11;;;;;;;23.45;7.55;;;;;;;1.27;86.55;102415.19;5259560;28;20029;-69
2021/03/22 04:39:43;;;;;;;22.92;7.50;;;;;;;1.29;86.46;102416.84;5260634;28;20508;-69
2021/03/22 04:42:14;;;;;;;28.58;8.27;;;;;;;1.32;86.47;102418.50;5259157;28;20465;-69
2021/03/22 04:44:45;;;;;;;32.47;8.20;;;;;;;1.33;86.65;102420.22;5259633;28;20444;-69
2021/03/22 04:47:17;;;;;;;32.10;7.93;;;;;;;1.31;86.62;102403.91;5259937;28;20052;-68
2021/03/22 04:49:48;;;;;;;24.98;7.72;;;;;;;1.43;86.11;102409.63;5260593;28;20478;-69
2021/03/22 04:52:19;;;;;;;21.20;7.25;;;;;;;1.50;86.29;102407.78;5247077;28;20500;-69
2021/03/22 04:54:50;;;;;;;27.33;8.32;;;;;;;1.55;87.15;102418.00;5258050;28;20492;-69
2021/03/22 04:57:30;;;;;;;27.48;8.43;;;;;;;1.60;86.54;102414.44;5260046;28;20044;-69
2021/03/22 05:00:09;;;;;;;27.42;8.38;;;;;;;1.65;86.06;102411.75;5257245;28;20392;-69
2021/03/22 05:02:40;;;;;;;29.77;8.38;;;;;;;1.66;86.39;102416.03;5251247;28;20163;-68
2021/03/22 05:05:12;;;;;;;26.42;9.32;;;;;;;1.71;86.33;102419.38;5258434;28;20099;-69
2021/03/22 05:07:43;;;;;;;34.88;9.30;;;;;;;1.70;86.49;102418.53;5238771;28;20029;-68
2021/03/22 05:10:25;;;;;;;30.75;8.68;;;;;;;1.78;86.12;102417.50;5239285;28;20024;-68
2021/03/22 05:12:56;;;;;;;28.42;9.68;;;;;;;1.70;85.94;102430.59;5246410;28;20538;-68
2021/03/22 05:15:28;;;;;;;25.83;9.52;;;;;;;1.76;86.72;102421.84;5258667;28;20036;-68
2021/03/22 05:17:59;;;;;;;31.60;9.48;;;;;;;1.75;87.18;102433.09;5239025;28;20028;-68
2021/03/22 05:20:33;;;;;;;27.55;9.13;;;;;;;1.81;87.42;102435.50;5239224;28;20365;-69
2021/03/22 05:23:07;;;;;;;30.90;8.50;;;;;;;1.79;86.97;102435.56;5258479;28;20029;-68
2021/03/22 05:25:38;;;;;;;;;;;;;;;1.96;86.17;102430.00;5255044;28;20017;-68
2021/03/22 05:28:10;;;;;;;33.40;8.73;;;;;;;1.89;87.16;102426.69;5250197;28;20022;-67
2021/03/22 05:30:42;;;;;;;28.15;9.50;;;;;;;1.86;87.91;102431.13;5240496;28;20028;-68
2021/03/22 05:33:16;;;;;;;26.90;9.88;;;;;;;1.91;87.71;102442.19;5260006;28;20029;-68
2021/03/22 05:35:49;;;;;;;37.08;10.80;;;;;;;1.92;87.96;102433.53;5253283;28;20499;-69
2021/03/22 05:38:22;;;;;;;33.53;9.63;;;;;;;1.94;87.99;102434.38;5258400;28;20486;-68
2021/03/22 05:41:01;;;;;;;36.03;10.73;;;;;;;1.98;87.29;102428.22;5260025;28;20087;-69
2021/03/22 05:43:41;;;;;;;28.95;9.93;;;;;;;2.01;87.90;102440.22;5250178;28;20036;-69
2021/03/22 05:46:50;;;;;;;35.15;11.23;;;;;;;2.05;87.58;102427.22;5238883;28;20105;-68
2021/03/22 05:49:43;;;;;;;33.53;10.15;;;;;;;2.05;88.18;102429.78;5243550;28;20030;-68
2021/03/22 05:52:22;;;;;;;38.05;11.35;;;;;;;2.10;88.24;102435.69;5255513;28;20032;-68
2021/03/22 05:55:29;;;;;;;37.72;10.60;;;;;;;2.17;88.36;102432.06;5242733;28;20549;-68
2021/03/22 05:58:20;;;;;;;29.45;11.23;;;;;;;2.14;88.55;102429.56;5260685;28;20052;-68
2021/03/22 06:00:58;;;;;;;33.47;11.38;;;;;;;2.20;88.85;102428.56;5262762;28;20052;-68
2021/03/22 06:03:42;;;;;;;41.00;11.50;;;;;;;2.26;89.19;102430.16;5263965;28;20032;-68
2021/03/22 06:06:37;;;;;;;35.10;12.13;;;;;;;2.32;89.09;102446.38;5256790;28;20029;-68
2021/03/22 06:09:33;;;;;;;42.17;12.10;;;;;;;2.33;89.00;102442.88;5263695;28;20490;-68
2021/03/22 06:12:07;;;;;;;35.40;11.90;;;;;;;2.34;88.77;102436.81;5264026;28;20538;-68
2021/03/22 06:14:48;;;;;;;37.28;11.02;;;;;;;2.37;88.26;102433.31;5248607;28;20037;-68
2021/03/22 06:17:32;;;;;;;35.90;12.15;;;;;;;2.41;89.13;102434.94;5263850;28;20075;-68
2021/03/22 06:20:07;;;;;;;37.47;11.07;;;;;;;2.51;88.92;102444.16;5262829;28;20035;-69
2021/03/22 06:22:38;;;;;;;36.97;11.55;;;;;;;2.57;89.59;102443.16;5253676;28;20095;-68
2021/03/22 06:25:23;;;;;;;35.78;10.70;;;;;;;2.58;89.02;102431.94;5243574;28;20585;-68
2021/03/22 06:27:59;;;;;;;34.25;11.63;;;;;;;2.68;89.46;102430.78;5262995;28;20047;-68
2021/03/22 06:30:31;;;;;;;36.20;12.05;;;;;;;2.75;89.74;102434.91;5263123;28;20104;-68
2021/03/22 06:33:02;;;;;;;39.25;11.30;;;;;;;2.80;89.33;102433.03;5259237;28;20178;-69
2021/03/22 06:35:36;;;;;;;33.42;11.63;;;;;;;2.91;89.48;102438.78;5258568;28;20381;-69
2021/03/22 06:38:08;;;;;;;32.63;11.63;;;;;;;2.99;89.36;102430.81;5263107;28;20029;-69
2021/03/22 06:40:40;;;;;;;36.33;12.18;;;;;;;3.04;89.26;102433.28;5262962;28;20488;-69
2021/03/22 06:43:17;;;;;;;34.63;10.80;;;;;;;3.13;89.27;102449.41;5262484;28;20119;-68
2021/03/22 06:46:07;;;;;;;40.25;13.43;;;;;;;3.16;89.42;102451.91;5259914;28;20426;-69
2021/03/22 06:48:39;;;;;;;34.30;12.15;;;;;;;3.19;88.96;102451.00;5251112;28;20632;-69
2021/03/22 06:51:10;;;;;;;34.63;11.82;;;;;;;3.25;88.88;102444.78;5241929;28;20112;-69
2021/03/22 06:53:43;;;;;;;29.73;11.18;;;;;;;3.32;89.09;102446.28;5242075;28;20075;-69
2021/03/22 06:56:29;;;;;;;38.67;12.27;;;;;;;3.40;88.66;102447.75;5257632;28;20025;-69
2021/03/22 06:59:10;;;;;;;36.20;12.35;;;;;;;3.49;88.55;102453.59;5260493;28;20091;-69
2021/03/22 07:01:43;;;;;;;38.42;13.18;;;;;;;3.53;88.94;102457.78;5262337;28;20033;-69
2021/03/22 07:04:16;;;;;;;30.52;11.38;;;;;;;3.60;88.35;102460.16;5258132;28;20028;-69
2021/03/22 07:07:10;;;;;;;42.58;12.13;;;;;;;3.68;88.02;102448.72;5242064;28;20025;-67
2021/03/22 07:09:43;;;;;;;36.50;10.27;;;;;;;3.72;88.56;102445.97;5246395;28;20391;-69
2021/03/22 07:12:33;;;;;;;34.85;10.43;;;;;;;3.88;88.22;102459.31;5248865;28;20116;-69
2021/03/22 07:15:23;;;;;;;33.13;9.48;;;;;;;3.95;87.83;102463.41;5261341;28;20037;-69
2021/03/22 07:18:13;;;;;;;31.67;10.77;;;;;;;3.99;87.18;102466.75;5242594;28;20029;-69
2021/03/22 07:21:02;;;;;;;39.30;9.98;;;;;;;4.03;87.74;102458.84;5255468;28;20035;-69
2021/03/22 07:23:43;;;;;;;32.33;9.15;;;;;;;4.08;86.51;102456.09;5241745;28;20021;-69
2021/03/22 07:26:20;;;;;;;35.75;11.07;;;;;;;4.16;87.22;102456.69;5247026;28;20035;-69
2021/03/22 07:29:19;;;;;;;34.80;10.98;;;;;;;4.23;87.30;102452.16;5240714;28;20363;-69
2021/03/22 07:32:31;;;;;;;33.55;9.95;;;;;;;4.30;85.94;102456.25;5257002;28;20075;-69
2021/03/22 07:35:25;;;;;;;38.17;9.80;;;;;;;4.36;86.21;102463.84;5258196;28;20032;-69
2021/03/22 07:38:37;;;;;;;30.95;9.93;;;;;;;4.46;85.87;102465.22;5251318;28;20045;-69
2021/03/22 07:41:36;;;;;;;38.63;9.90;;;;;;;4.50;85.99;102469.41;5212241;28;20080;-68
2021/03/22 07:44:16;;;;;;;30.83;10.40;;;;;;;4.55;86.44;102461.50;5260232;28;20524;-69
2021/03/22 07:47:19;;;;;;;32.85;10.90;;;;;;;4.62;86.16;102468.13;5257359;28;20025;-69
2021/03/22 07:50:12;;;;;;;35.20;10.02;;;;;;;4.71;85.20;102469.59;5258099;28;20040;-69
2021/03/22 07:52:50;;;;;;;32.28;11.18;;;;;;;4.72;85.28;102466.09;5258088;28;20546;-69
2021/03/22 07:55:38;;;;;;;32.85;9.98;;;;;;;4.77;85.01;102464.19;5240019;28;20036;-69
2021/03/22 07:58:40;;;;;;;36.88;12.23;;;;;;;4.84;84.94;102470.84;5256884;28;20133;-69
2021/03/22 08:02:10;;;;;;;31.00;11.02;;;;;;;4.96;85.20;102469.56;5261637;28;20067;-69
2021/03/22 08:05:03;;;;;;;27.48;9.73;;;;;;;5.02;84.52;102472.81;5211543;28;20129;-69
2021/03/22 08:08:00;;;;;;;32.50;9.80;;;;;;;5.06;83.97;102476.16;5259155;28;20021;-69
2021/03/22 08:10:42;;;;;;;27.55;10.43;;;;;;;5.16;84.45;102481.88;5251169;28;20117;-69
2021/03/22 08:13:39;;;;;;;30.90;11.57;;;;;;;5.24;83.53;102479.84;5255779;28;20040;-69
2021/03/22 08:16:29;;;;;;;28.42;9.40;;;;;;;5.29;83.47;102476.16;5239269;28;20021;-69
2021/03/22 08:19:20;;;;;;;28.38;9.52;;;;;;;5.37;82.53;102473.28;5259736;28;21830;-69
2021/03/22 08:22:10;;;;;;;27.55;9.88;;;;;;;5.44;81.94;102463.53;5259612;28;20487;-69
2021/03/22 08:24:51;;;;;;;29.00;8.80;;;;;;;5.54;82.07;102473.53;5240950;28;20025;-69
2021/03/22 08:27:27;;;;;;;25.55;8.63;;;;;;;5.59;80.67;102462.94;5259293;28;20033;-69
2021/03/22 08:30:27;;;;;;;22.27;8.00;;;;;;;5.58;79.57;102454.31;5257944;28;20112;-69
2021/03/22 08:33:22;;;;;;;24.50;8.40;;;;;;;5.73;79.66;102472.81;5257313;28;20028;-69
2021/03/22 08:36:21;;;;;;;27.83;9.32;;;;;;;5.81;79.42;102474.22;5246113;28;20020;-69
2021/03/22 08:38:57;;;;;;;23.20;7.60;;;;;;;5.88;79.19;102472.25;5253671;28;20036;-69
2021/03/22 08:41:34;;;;;;;20.10;7.70;;;;;;;5.94;77.92;102471.16;5258575;28;20040;-69
2021/03/22 08:44:17;;;;;;;25.63;7.90;;;;;;;6.01;77.21;102481.28;5258472;28;20021;-69
2021/03/22 08:47:05;;;;;;;24.10;7.25;;;;;;;6.09;77.42;102478.38;5239773;28;20025;-70
2021/03/22 08:49:59;;;;;;;19.05;7.30;;;;;;;6.10;74.75;102477.47;5257087;28;20064;-69
2021/03/22 08:52:38;;;;;;;19.40;7.35;;;;;;;6.15;76.82;102485.09;5255734;28;20041;-69
2021/03/22 08:55:15;;;;;;;24.08;7.05;;;;;;;6.09;75.31;102488.78;5247064;28;20025;-69
2021/03/22 08:58:04;;;;;;;18.98;6.57;;;;;;;6.05;75.27;102488.03;5258360;28;20067;-69
2021/03/22 09:00:41;;;;;;;21.30;7.43;;;;;;;5.99;76.08;102495.25;5257103;28;20132;-70
2021/03/22 09:03:15;;;;;;;21.13;6.90;;;;;;;5.98;76.80;102501.34;5246338;28;20036;-70
2021/03/22 09:06:08;;;;;;;19.15;5.70;;;;;;;6.00;76.39;102496.94;5254518;28;20036;-69
2021/03/22 09:08:55;;;;;;;16.13;5.13;;;;;;;6.00;74.89;102504.75;5250453;28;20056;-70
2021/03/22 09:11:43;;;;;;;12.05;4.80;;;;;;;6.02;73.12;102497.72;5257688;28;20033;-69
2021/03/22 09:14:14;;;;;;;12.52;4.68;;;;;;;6.03;71.53;102495.06;5251598;28;20048;-69
2021/03/22 09:16:50;;;;;;;13.00;4.83;;;;;;;6.13;70.12;102499.91;5254209;28;20033;-68
2021/03/22 09:19:22;;;;;;;9.80;4.15;;;;;;;6.16;68.73;102502.41;5258334;28;21615;-69
2021/03/22 09:21:59;;;;;;;11.70;4.35;;;;;;;6.27;69.40;102498.44;5249132;28;20033;-70
2021/03/22 09:24:36;;;;;;;9.23;3.90;;;;;;;6.43;69.49;102498.66;5254970;28;20390;-70
2021/03/22 09:27:13;;;;;;;7.95;3.65;;;;;;;6.53;68.66;102497.41;5254693;28;20090;-69
2021/03/22 09:29:49;;;;;;;9.15;3.65;;;;;;;6.67;67.94;102504.66;5254216;28;20035;-68
2021/03/22 09:32:24;;;;;;;9.05;3.40;;;;;;;6.76;67.33;102498.19;5256146;28;20413;-69
2021/03/22 09:35:03;;;;;;;7.57;2.85;;;;;;;6.80;65.72;102490.19;5243807;28;20048;-69
2021/03/22 09:38:02;;;;;;;7.70;3.03;;;;;;;6.82;67.58;102483.16;5248022;28;20118;-68
2021/03/22 09:40:33;;;;;;;8.93;2.97;;;;;;;6.86;66.77;102488.22;5253884;28;20386;-68
2021/03/22 09:43:10;;;;;;;6.77;2.63;;;;;;;6.89;66.11;102499.34;5254156;28;20040;-69
2021/03/22 09:45:54;;;;;;;7.60;2.83;;;;;;;7.03;67.13;102493.56;5241330;28;20684;-68
2021/03/22 09:48:46;;;;;;;7.97;3.15;;;;;;;7.10;68.22;102500.19;5253575;28;20060;-68
2021/03/22 09:51:17;;;;;;;12.40;3.67;;;;;;;6.97;64.24;102497.28;5251452;28;20038;-68
2021/03/22 09:53:55;;;;;;;7.83;3.03;;;;;;;7.00;65.65;102504.94;5239661;28;20090;-70
2021/03/22 09:57:15;;;;;;;8.30;3.42;;;;;;;7.03;67.24;102512.63;5257246;28;20051;-71
2021/03/22 10:00:11;;;;;;;7.13;3.25;;;;;;;6.91;67.18;102502.75;5245031;28;20057;-68
2021/03/22 10:03:21;;;;;;;9.55;3.80;;;;;;;6.89;66.51;102506.31;5248130;28;20058;-70
2021/03/22 10:05:52;;;;;;;11.13;3.78;;;;;;;6.78;65.95;102511.97;5207382;28;20033;-68
2021/03/22 10:08:41;;;;;;;11.50;4.68;;;;;;;6.85;67.67;102509.97;5248975;28;20045;-69
2021/03/22 10:11:20;;;;;;;11.25;4.88;;;;;;;6.83;67.30;102508.28;5250958;28;20056;-68
2021/03/22 10:13:58;;;;;;;9.95;3.90;;;;;;;6.88;66.89;102507.25;5237267;28;20029;-68
2021/03/22 10:16:34;;;;;;;9.32;4.45;;;;;;;6.92;66.24;102512.25;5253819;28;20017;-71
2021/03/22 10:19:16;;;;;;;10.27;4.68;;;;;;;7.00;67.59;102507.56;5253774;28;20032;-70
2021/03/22 10:21:52;;;;;;;9.57;4.72;;;;;;;7.06;66.55;102509.06;5250259;28;20036;-70
2021/03/22 10:25:00;;;;;;;13.75;5.05;;;;;;;7.18;67.81;102518.09;5247725;28;21481;-69
2021/03/22 10:27:34;;;;;;;8.52;3.97;;;;;;;7.10;65.28;102515.84;5254887;28;20040;-68
2021/03/22 10:30:16;;;;;;;11.77;3.97;;;;;;;7.18;65.38;102529.38;5243483;28;20025;-68
2021/03/22 10:32:59;;;;;;;9.70;4.18;;;;;;;7.29;66.25;102524.53;5249496;28;20024;-69
2021/03/22 10:35:49;;;;;;;8.13;3.40;;;;;;;7.49;65.71;102520.19;5251566;28;20017;-68
2021/03/22 10:38:31;;;;;;;7.18;3.50;;;;;;;7.47;64.31;102528.09;5251553;28;20044;-68
2021/03/22 10:41:04;;;;;;;10.52;3.78;;;;;;;7.49;63.59;102528.00;5254821;28;20017;-69
2021/03/22 10:43:39;;;;;;;9.75;4.00;;;;;;;7.48;63.96;102521.97;5255673;28;20028;-70
2021/03/22 10:46:19;;;;;;;7.45;3.85;;;;;;;7.57;63.71;102524.13;5258561;28;20025;-69
2021/03/22 10:49:04;;;;;;;8.77;4.05;;;;;;;7.67;63.94;102524.59;5248741;28;20556;-68
2021/03/22 10:51:39;;;;;;;9.93;3.85;;;;;;;7.71;63.77;102526.13;5251485;28;20061;-70
2021/03/22 10:54:17;;;;;;;9.55;3.45;;;;;;;7.88;64.10;102517.53;5251687;28;20035;-72
2021/03/22 10:56:55;;;;;;;8.02;3.50;;;;;;;7.91;64.02;102509.53;5234361;28;583336;-70
2021/03/22 10:59:45;;;;;;;9.13;4.50;;;;;;;8.08;62.97;102521.81;5260713;28;20389;-70
2021/03/22 11:02:34;;;;;;;12.13;4.22;;;;;;;8.21;63.40;102524.69;5256898;28;20734;-72
2021/03/22 11:05:11;;;;;;;11.98;4.28;;;;;;;8.27;62.57;102524.38;5251304;28;20090;-69
2021/03/22 11:07:52;;;;;;;8.57;3.67;;;;;;;8.30;63.02;102521.63;5258745;28;20025;-71
2021/03/22 11:10:25;;;;;;;9.32;4.13;;;;;;;8.22;62.08;102526.34;5259918;28;20120;-69
2021/03/22 11:12:56;;;;;;;7.60;3.35;;;;;;;8.29;64.23;102528.59;5255695;28;20040;-71
2021/03/22 11:15:34;;;;;;;11.30;4.22;;;;;;;8.30;63.48;102521.63;5251615;28;20041;-68
2021/03/22 11:18:12;;;;;;;9.07;3.85;;;;;;;8.39;63.08;102525.59;5258337;28;20029;-68
2021/03/22 11:20:46;;;;;;;9.05;3.67;;;;;;;8.33;63.48;102526.69;5256147;28;20513;-69
2021/03/22 11:23:25;;;;;;;8.70;4.15;;;;;;;8.42;63.30;102538.50;5258066;28;20059;-68
2021/03/22 11:26:25;;;;;;;9.35;3.90;;;;;;;8.47;63.52;102534.75;5257427;28;20047;-71
2021/03/22 11:29:19;;;;;;;6.40;3.80;;;;;;;8.48;63.13;102533.81;5259355;28;20036;-69
2021/03/22 11:31:58;;;;;;;12.95;4.00;;;;;;;8.45;62.12;102533.13;5257484;28;20490;-68
2021/03/22 11:34:33;;;;;;;8.68;2.90;;;;;;;8.35;61.43;102537.91;5236493;28;20398;-69
2021/03/22 11:37:46;;;;;;;8.18;3.03;;;;;;;8.35;62.10;102532.69;5256288;28;20075;-68
2021/03/22 11:40:24;;;;;;;6.78;3.22;;;;;;;8.35;62.06;102535.31;5245162;28;20033;-68
2021/03/22 11:43:14;;;;;;;5.53;2.78;;;;;;;8.23;62.03;102535.91;5251378;28;20013;-68
2021/03/22 11:45:46;;;;;;;6.25;2.70;;;;;;;8.21;61.94;102535.13;5246228;28;20131;-73
2021/03/22 11:48:20;;;;;;;5.95;1.67;;;;;;;8.21;60.98;102542.94;5253182;28;20108;-68
2021/03/22 11:50:54;;;;;;;8.25;1.90;;;;;;;8.14;62.04;102541.53;5253525;28;20115;-70
2021/03/22 11:53:25;;;;;;;4.75;1.60;;;;;;;8.23;62.31;102535.91;5257724;28;20036;-70
2021/03/22 11:56:20;;;;;;;4.70;1.90;;;;;;;8.29;62.64;102532.97;5259920;28;20036;-70
2021/03/22 11:58:51;;;;;;;3.08;1.92;;;;;;;8.34;61.47;102540.63;5248439;28;20033;-69
2021/03/22 12:01:26;;;;;;;6.72;1.95;;;;;;;8.29;61.21;102532.97;5259076;28;20025;-68
2021/03/22 12:04:03;;;;;;;6.10;2.00;;;;;;;8.31;62.95;102531.16;5259570;28;20016;-68
2021/03/22 12:06:54;;;;;;;3.70;1.85;;;;;;;8.32;62.84;102526.78;5255046;28;20028;-68
2021/03/22 12:09:28;;;;;;;4.75;2.10;;;;;;;8.20;63.17;102533.44;5255619;28;20025;-68
2021/03/22 12:12:00;;;;;;;;;;;;;;;8.49;63.53;102539.91;5238061;28;20523;-68
2021/03/22 12:14:31;;;;;;;8.48;2.38;;;;;;;8.21;61.78;102532.50;5257806;28;19981;-69
2021/03/22 12:17:07;;;;;;;8.60;2.25;;;;;;;8.32;62.37;102527.63;5255224;28;20032;-68
2021/03/22 12:19:41;;;;;;;6.57;2.00;;;;;;;8.26;63.42;102527.94;5259123;28;20028;-69
2021/03/22 12:22:15;;;;;;;5.80;2.08;;;;;;;8.28;62.90;102533.91;5257016;28;20539;-68